sensor_id;sensor_type;location;lat;lon;timestamp;P1;durP1;ratioP1;P2;durP2;ratioP2
18383;SDS011;9318;48.644;9.456;2023-08-24T00:01:12;0.70;;;0.70;;
18383;SDS011;9318;48.644;9.456;2023-08-24T00:03:40;0.73;;;0.73;;
18383;SDS011;9318;48.644;9.456;2023-08-24T00:06:07;0.80;;;0.80;;
18383;SDS011;9318;48.644;9.456;2023-08-24T00:08:34;0.70;;;0.70;;
18383;SDS011;9318;48.644;9.456;2023-08-24T00:11:02;0.68;;;0.68;;
18383;SDS011;9318;48.644;9.456;2023-08-24T00:13:30;0.70;;;0.70;;
18383;SDS011;9318;48.644;9.456;2023-08-24T00:15:57;0.70;;;0.70;;
18383;SDS011;9318;48.644;9.456;2023-08-24T00:18:24;0.70;;;0.70;;
18383;SDS011;9318;48.644;9.456;2023-08-24T00:20:51;0.70;;;0.70;;
18383;SDS011;9318;48.644;9.456;2023-08-24T00:23:18;0.68;;;0.68;;
18383;SDS011;9318;48.644;9.456;2023-08-24T00:25:44;0.80;;;0.80;;
18383;SDS011;9318;48.644;9.456;2023-08-24T00:28:12;0.80;;;0.80;;
18383;SDS011;9318;48.644;9.456;2023-08-24T00:30:39;0.70;;;0.70;;
18383;SDS011;9318;48.644;9.456;2023-08-24T00:33:06;0.70;;;0.70;;
18383;SDS011;9318;48.644;9.456;2023-08-24T00:35:32;0.70;;;0.70;;
18383;SDS011;9318;48.644;9.456;2023-08-24T00:37:59;0.70;;;0.70;;
18383;SDS011;9318;48.644;9.456;2023-08-24T00:40:26;0.70;;;0.70;;
18383;SDS011;9318;48.644;9.456;2023-08-24T00:42:53;0.68;;;0.68;;
18383;SDS011;9318;48.644;9.456;2023-08-24T00:45:21;0.80;;;0.80;;
18383;SDS011;9318;48.644;9.456;2023-08-24T00:47:47;0.68;;;0.68;;
18383;SDS011;9318;48.644;9.456;2023-08-24T00:50:15;0.80;;;0.80;;
18383;SDS011;9318;48.644;9.456;2023-08-24T00:52:43;0.70;;;0.70;;
18383;SDS011;9318;48.644;9.456;2023-08-24T00:55:12;0.77;;;0.77;;
18383;SDS011;9318;48.644;9.456;2023-08-24T00:57:39;0.80;;;0.80;;
18383;SDS011;9318;48.644;9.456;2023-08-24T01:00:07;0.75;;;0.75;;
18383;SDS011;9318;48.644;9.456;2023-08-24T01:02:37;0.70;;;0.70;;
18383;SDS011;9318;48.644;9.456;2023-08-24T01:05:04;0.70;;;0.70;;
18383;SDS011;9318;48.644;9.456;2023-08-24T01:07:32;0.80;;;0.80;;
18383;SDS011;9318;48.644;9.456;2023-08-24T01:10:00;0.70;;;0.70;;
18383;SDS011;9318;48.644;9.456;2023-08-24T01:12:32;0.75;;;0.75;;
18383;SDS011;9318;48.644;9.456;2023-08-24T01:15:09;0.70;;;0.70;;
18383;SDS011;9318;48.644;9.456;2023-08-24T01:17:41;0.70;;;0.70;;
18383;SDS011;9318;48.644;9.456;2023-08-24T01:20:09;0.70;;;0.70;;
18383;SDS011;9318;48.644;9.456;2023-08-24T01:22:37;0.70;;;0.70;;
18383;SDS011;9318;48.644;9.456;2023-08-24T01:25:14;0.70;;;0.70;;
18383;SDS011;9318;48.644;9.456;2023-08-24T01:27:43;0.65;;;0.65;;
18383;SDS011;9318;48.644;9.456;2023-08-24T01:30:11;0.70;;;0.70;;
18383;SDS011;9318;48.644;9.456;2023-08-24T01:32:38;0.80;;;0.80;;
18383;SDS011;9318;48.644;9.456;2023-08-24T01:35:05;0.80;;;0.80;;
18383;SDS011;9318;48.644;9.456;2023-08-24T01:37:34;0.60;;;0.60;;
18383;SDS011;9318;48.644;9.456;2023-08-24T01:40:03;0.68;;;0.68;;
18383;SDS011;9318;48.644;9.456;2023-08-24T01:42:35;0.70;;;0.70;;
18383;SDS011;9318;48.644;9.456;2023-08-24T01:45:07;0.70;;;0.70;;
18383;SDS011;9318;48.644;9.456;2023-08-24T01:47:36;0.80;;;0.80;;
18383;SDS011;9318;48.644;9.456;2023-08-24T01:50:04;0.70;;;0.70;;
18383;SDS011;9318;48.644;9.456;2023-08-24T01:52:32;0.63;;;0.63;;
18383;SDS011;9318;48.644;9.456;2023-08-24T01:55:00;0.85;;;0.85;;
18383;SDS011;9318;48.644;9.456;2023-08-24T01:57:26;0.70;;;0.70;;
18383;SDS011;9318;48.644;9.456;2023-08-24T01:59:53;0.80;;;0.80;;
18383;SDS011;9318;48.644;9.456;2023-08-24T02:02:21;0.70;;;0.70;;
18383;SDS011;9318;48.644;9.456;2023-08-24T02:04:49;0.70;;;0.70;;
18383;SDS011;9318;48.644;9.456;2023-08-24T02:07:16;0.70;;;0.70;;
18383;SDS011;9318;48.644;9.456;2023-08-24T02:09:43;0.60;;;0.60;;
18383;SDS011;9318;48.644;9.456;2023-08-24T02:12:10;0.70;;;0.70;;
18383;SDS011;9318;48.644;9.456;2023-08-24T02:14:36;0.80;;;0.80;;
18383;SDS011;9318;48.644;9.456;2023-08-24T02:17:03;0.73;;;0.73;;
18383;SDS011;9318;48.644;9.456;2023-08-24T02:19:31;0.80;;;0.80;;
18383;SDS011;9318;48.644;9.456;2023-08-24T02:21:58;0.80;;;0.80;;
18383;SDS011;9318;48.644;9.456;2023-08-24T02:24:24;0.70;;;0.70;;
18383;SDS011;9318;48.644;9.456;2023-08-24T02:26:51;0.90;;;0.90;;
18383;SDS011;9318;48.644;9.456;2023-08-24T02:29:18;0.80;;;0.80;;
18383;SDS011;9318;48.644;9.456;2023-08-24T02:31:45;0.80;;;0.80;;
18383;SDS011;9318;48.644;9.456;2023-08-24T02:34:11;0.80;;;0.80;;
18383;SDS011;9318;48.644;9.456;2023-08-24T02:36:39;0.88;;;0.88;;
18383;SDS011;9318;48.644;9.456;2023-08-24T02:39:06;0.75;;;0.75;;
18383;SDS011;9318;48.644;9.456;2023-08-24T02:41:33;0.80;;;0.80;;
18383;SDS011;9318;48.644;9.456;2023-08-24T02:44:00;0.70;;;0.70;;
18383;SDS011;9318;48.644;9.456;2023-08-24T02:46:27;0.80;;;0.80;;
18383;SDS011;9318;48.644;9.456;2023-08-24T02:48:54;0.80;;;0.80;;
18383;SDS011;9318;48.644;9.456;2023-08-24T02:51:21;0.80;;;0.80;;
18383;SDS011;9318;48.644;9.456;2023-08-24T02:53:50;0.80;;;0.80;;
18383;SDS011;9318;48.644;9.456;2023-08-24T02:56:17;0.80;;;0.80;;
18383;SDS011;9318;48.644;9.456;2023-08-24T02:58:44;0.73;;;0.73;;
18383;SDS011;9318;48.644;9.456;2023-08-24T03:01:10;0.80;;;0.80;;
18383;SDS011;9318;48.644;9.456;2023-08-24T03:03:37;0.90;;;0.90;;
18383;SDS011;9318;48.644;9.456;2023-08-24T03:06:05;0.90;;;0.90;;
18383;SDS011;9318;48.644;9.456;2023-08-24T03:08:32;0.80;;;0.80;;
18383;SDS011;9318;48.644;9.456;2023-08-24T03:11:01;0.82;;;0.82;;
18383;SDS011;9318;48.644;9.456;2023-08-24T03:13:29;0.90;;;0.90;;
18383;SDS011;9318;48.644;9.456;2023-08-24T03:15:56;0.73;;;0.73;;
18383;SDS011;9318;48.644;9.456;2023-08-24T03:18:23;0.70;;;0.70;;
18383;SDS011;9318;48.644;9.456;2023-08-24T03:20:50;0.80;;;0.80;;
18383;SDS011;9318;48.644;9.456;2023-08-24T03:23:16;0.80;;;0.80;;
18383;SDS011;9318;48.644;9.456;2023-08-24T03:25:43;0.80;;;0.80;;
18383;SDS011;9318;48.644;9.456;2023-08-24T03:28:12;0.80;;;0.80;;
18383;SDS011;9318;48.644;9.456;2023-08-24T03:30:39;0.80;;;0.80;;
18383;SDS011;9318;48.644;9.456;2023-08-24T03:33:11;0.63;;;0.63;;
18383;SDS011;9318;48.644;9.456;2023-08-24T03:35:37;0.70;;;0.70;;
18383;SDS011;9318;48.644;9.456;2023-08-24T03:38:04;0.77;;;0.77;;
18383;SDS011;9318;48.644;9.456;2023-08-24T03:40:31;0.80;;;0.80;;
18383;SDS011;9318;48.644;9.456;2023-08-24T03:42:58;0.70;;;0.70;;
18383;SDS011;9318;48.644;9.456;2023-08-24T03:45:26;0.82;;;0.82;;
18383;SDS011;9318;48.644;9.456;2023-08-24T03:47:52;0.88;;;0.88;;
18383;SDS011;9318;48.644;9.456;2023-08-24T03:50:19;0.70;;;0.70;;
18383;SDS011;9318;48.644;9.456;2023-08-24T03:52:47;0.73;;;0.73;;
18383;SDS011;9318;48.644;9.456;2023-08-24T03:55:14;0.80;;;0.80;;
18383;SDS011;9318;48.644;9.456;2023-08-24T03:57:41;0.80;;;0.80;;
18383;SDS011;9318;48.644;9.456;2023-08-24T04:00:08;0.63;;;0.63;;
18383;SDS011;9318;48.644;9.456;2023-08-24T04:02:37;0.88;;;0.88;;
18383;SDS011;9318;48.644;9.456;2023-08-24T04:05:04;0.80;;;0.80;;
18383;SDS011;9318;48.644;9.456;2023-08-24T04:07:32;0.80;;;0.80;;
18383;SDS011;9318;48.644;9.456;2023-08-24T04:10:01;0.70;;;0.70;;
18383;SDS011;9318;48.644;9.456;2023-08-24T04:12:30;0.70;;;0.70;;
18383;SDS011;9318;48.644;9.456;2023-08-24T04:14:57;0.77;;;0.77;;
18383;SDS011;9318;48.644;9.456;2023-08-24T04:17:24;0.80;;;0.80;;
18383;SDS011;9318;48.644;9.456;2023-08-24T04:19:52;0.82;;;0.82;;
18383;SDS011;9318;48.644;9.456;2023-08-24T04:22:19;0.90;;;0.90;;
18383;SDS011;9318;48.644;9.456;2023-08-24T04:24:45;0.90;;;0.90;;
18383;SDS011;9318;48.644;9.456;2023-08-24T04:27:12;0.70;;;0.70;;
18383;SDS011;9318;48.644;9.456;2023-08-24T04:29:39;0.80;;;0.80;;
18383;SDS011;9318;48.644;9.456;2023-08-24T04:32:06;0.85;;;0.85;;
18383;SDS011;9318;48.644;9.456;2023-08-24T04:34:33;0.80;;;0.80;;
18383;SDS011;9318;48.644;9.456;2023-08-24T04:37:01;0.80;;;0.80;;
18383;SDS011;9318;48.644;9.456;2023-08-24T04:39:28;0.90;;;0.90;;
18383;SDS011;9318;48.644;9.456;2023-08-24T04:41:55;0.80;;;0.80;;
18383;SDS011;9318;48.644;9.456;2023-08-24T04:44:22;0.70;;;0.70;;
18383;SDS011;9318;48.644;9.456;2023-08-24T04:46:49;0.73;;;0.73;;
18383;SDS011;9318;48.644;9.456;2023-08-24T04:49:16;0.80;;;0.80;;
18383;SDS011;9318;48.644;9.456;2023-08-24T04:51:42;0.80;;;0.80;;
18383;SDS011;9318;48.644;9.456;2023-08-24T04:54:11;0.70;;;0.70;;
18383;SDS011;9318;48.644;9.456;2023-08-24T04:56:37;0.77;;;0.77;;
18383;SDS011;9318;48.644;9.456;2023-08-24T04:59:04;0.70;;;0.70;;
18383;SDS011;9318;48.644;9.456;2023-08-24T05:01:33;0.80;;;0.80;;
18383;SDS011;9318;48.644;9.456;2023-08-24T05:04:00;0.80;;;0.80;;
18383;SDS011;9318;48.644;9.456;2023-08-24T05:06:27;0.73;;;0.73;;
18383;SDS011;9318;48.644;9.456;2023-08-24T05:08:54;0.90;;;0.90;;
18383;SDS011;9318;48.644;9.456;2023-08-24T05:11:23;0.70;;;0.70;;
18383;SDS011;9318;48.644;9.456;2023-08-24T05:13:51;0.82;;;0.82;;
18383;SDS011;9318;48.644;9.456;2023-08-24T05:16:18;0.68;;;0.68;;
18383;SDS011;9318;48.644;9.456;2023-08-24T05:18:44;0.70;;;0.70;;
18383;SDS011;9318;48.644;9.456;2023-08-24T05:21:11;0.80;;;0.80;;
18383;SDS011;9318;48.644;9.456;2023-08-24T05:23:38;0.70;;;0.70;;
18383;SDS011;9318;48.644;9.456;2023-08-24T05:26:05;0.68;;;0.68;;
18383;SDS011;9318;48.644;9.456;2023-08-24T05:28:33;0.80;;;0.80;;
18383;SDS011;9318;48.644;9.456;2023-08-24T05:31:00;0.80;;;0.80;;
18383;SDS011;9318;48.644;9.456;2023-08-24T05:33:26;0.80;;;0.80;;
18383;SDS011;9318;48.644;9.456;2023-08-24T05:35:56;0.80;;;0.80;;
18383;SDS011;9318;48.644;9.456;2023-08-24T05:38:23;0.70;;;0.70;;
18383;SDS011;9318;48.644;9.456;2023-08-24T05:40:50;0.70;;;0.70;;
18383;SDS011;9318;48.644;9.456;2023-08-24T05:43:17;0.73;;;0.73;;
18383;SDS011;9318;48.644;9.456;2023-08-24T05:45:45;0.73;;;0.73;;
18383;SDS011;9318;48.644;9.456;2023-08-24T05:48:12;0.80;;;0.80;;
18383;SDS011;9318;48.644;9.456;2023-08-24T05:50:41;0.70;;;0.70;;
18383;SDS011;9318;48.644;9.456;2023-08-24T05:53:09;0.60;;;0.60;;
18383;SDS011;9318;48.644;9.456;2023-08-24T05:55:36;0.60;;;0.60;;
18383;SDS011;9318;48.644;9.456;2023-08-24T05:58:03;0.60;;;0.60;;
18383;SDS011;9318;48.644;9.456;2023-08-24T06:00:30;0.80;;;0.80;;
18383;SDS011;9318;48.644;9.456;2023-08-24T06:02:59;0.60;;;0.60;;
18383;SDS011;9318;48.644;9.456;2023-08-24T06:05:26;0.80;;;0.80;;
18383;SDS011;9318;48.644;9.456;2023-08-24T06:07:52;0.65;;;0.65;;
18383;SDS011;9318;48.644;9.456;2023-08-24T06:10:19;0.60;;;0.60;;
18383;SDS011;9318;48.644;9.456;2023-08-24T06:12:46;0.60;;;0.60;;
18383;SDS011;9318;48.644;9.456;2023-08-24T06:15:13;0.60;;;0.60;;
18383;SDS011;9318;48.644;9.456;2023-08-24T06:17:41;0.70;;;0.70;;
18383;SDS011;9318;48.644;9.456;2023-08-24T06:20:10;0.70;;;0.70;;
18383;SDS011;9318;48.644;9.456;2023-08-24T06:22:37;0.65;;;0.65;;
18383;SDS011;9318;48.644;9.456;2023-08-24T06:25:05;0.60;;;0.60;;
18383;SDS011;9318;48.644;9.456;2023-08-24T06:27:33;0.50;;;0.50;;
18383;SDS011;9318;48.644;9.456;2023-08-24T06:30:00;0.70;;;0.70;;
18383;SDS011;9318;48.644;9.456;2023-08-24T06:32:28;0.60;;;0.60;;
18383;SDS011;9318;48.644;9.456;2023-08-24T06:34:55;0.50;;;0.50;;
18383;SDS011;9318;48.644;9.456;2023-08-24T06:37:23;0.50;;;0.50;;
18383;SDS011;9318;48.644;9.456;2023-08-24T06:39:50;0.60;;;0.60;;
18383;SDS011;9318;48.644;9.456;2023-08-24T06:42:17;0.50;;;0.50;;
18383;SDS011;9318;48.644;9.456;2023-08-24T06:44:44;0.60;;;0.60;;
18383;SDS011;9318;48.644;9.456;2023-08-24T06:47:10;0.60;;;0.60;;
18383;SDS011;9318;48.644;9.456;2023-08-24T06:49:37;0.50;;;0.50;;
18383;SDS011;9318;48.644;9.456;2023-08-24T06:52:04;0.60;;;0.60;;
18383;SDS011;9318;48.644;9.456;2023-08-24T06:54:32;0.60;;;0.60;;
18383;SDS011;9318;48.644;9.456;2023-08-24T06:56:59;0.50;;;0.50;;
18383;SDS011;9318;48.644;9.456;2023-08-24T06:59:26;0.57;;;0.57;;
18383;SDS011;9318;48.644;9.456;2023-08-24T07:01:52;0.50;;;0.50;;
18383;SDS011;9318;48.644;9.456;2023-08-24T07:04:19;0.60;;;0.60;;
18383;SDS011;9318;48.644;9.456;2023-08-24T07:06:46;0.65;;;0.65;;
18383;SDS011;9318;48.644;9.456;2023-08-24T07:09:14;0.50;;;0.50;;
18383;SDS011;9318;48.644;9.456;2023-08-24T07:11:42;0.60;;;0.60;;
18383;SDS011;9318;48.644;9.456;2023-08-24T07:14:08;0.60;;;0.60;;
18383;SDS011;9318;48.644;9.456;2023-08-24T07:16:35;0.60;;;0.60;;
18383;SDS011;9318;48.644;9.456;2023-08-24T07:19:02;0.60;;;0.60;;
18383;SDS011;9318;48.644;9.456;2023-08-24T07:21:30;0.60;;;0.60;;
18383;SDS011;9318;48.644;9.456;2023-08-24T07:23:56;0.60;;;0.60;;
18383;SDS011;9318;48.644;9.456;2023-08-24T07:26:23;0.60;;;0.60;;
18383;SDS011;9318;48.644;9.456;2023-08-24T07:28:53;0.40;;;0.40;;
18383;SDS011;9318;48.644;9.456;2023-08-24T07:31:20;0.45;;;0.45;;
18383;SDS011;9318;48.644;9.456;2023-08-24T07:33:47;0.50;;;0.50;;
18383;SDS011;9318;48.644;9.456;2023-08-24T07:36:14;0.57;;;0.57;;
18383;SDS011;9318;48.644;9.456;2023-08-24T07:38:41;0.40;;;0.40;;
18383;SDS011;9318;48.644;9.456;2023-08-24T07:41:08;0.60;;;0.60;;
18383;SDS011;9318;48.644;9.456;2023-08-24T07:43:36;0.50;;;0.50;;
18383;SDS011;9318;48.644;9.456;2023-08-24T07:46:03;0.50;;;0.50;;
18383;SDS011;9318;48.644;9.456;2023-08-24T07:48:31;0.50;;;0.50;;
18383;SDS011;9318;48.644;9.456;2023-08-24T07:50:57;0.50;;;0.50;;
18383;SDS011;9318;48.644;9.456;2023-08-24T07:53:24;0.40;;;0.40;;
18383;SDS011;9318;48.644;9.456;2023-08-24T07:55:52;0.50;;;0.50;;
18383;SDS011;9318;48.644;9.456;2023-08-24T07:58:19;0.40;;;0.40;;
18383;SDS011;9318;48.644;9.456;2023-08-24T08:00:48;0.50;;;0.50;;
18383;SDS011;9318;48.644;9.456;2023-08-24T08:03:17;0.40;;;0.40;;
18383;SDS011;9318;48.644;9.456;2023-08-24T08:05:44;0.50;;;0.50;;
18383;SDS011;9318;48.644;9.456;2023-08-24T08:08:11;0.40;;;0.40;;
18383;SDS011;9318;48.644;9.456;2023-08-24T08:10:38;0.40;;;0.40;;
18383;SDS011;9318;48.644;9.456;2023-08-24T08:13:05;0.40;;;0.40;;
18383;SDS011;9318;48.644;9.456;2023-08-24T08:15:32;0.30;;;0.30;;
18383;SDS011;9318;48.644;9.456;2023-08-24T08:17:59;0.30;;;0.30;;
18383;SDS011;9318;48.644;9.456;2023-08-24T08:20:27;0.30;;;0.30;;
18383;SDS011;9318;48.644;9.456;2023-08-24T08:22:54;0.30;;;0.30;;
18383;SDS011;9318;48.644;9.456;2023-08-24T08:25:21;0.28;;;0.28;;
18383;SDS011;9318;48.644;9.456;2023-08-24T08:27:48;0.30;;;0.30;;
18383;SDS011;9318;48.644;9.456;2023-08-24T08:30:15;0.20;;;0.20;;
18383;SDS011;9318;48.644;9.456;2023-08-24T08:32:42;0.30;;;0.30;;
18383;SDS011;9318;48.644;9.456;2023-08-24T08:35:08;0.20;;;0.20;;
18383;SDS011;9318;48.644;9.456;2023-08-24T08:37:36;0.22;;;0.22;;
18383;SDS011;9318;48.644;9.456;2023-08-24T08:40:04;0.20;;;0.20;;
18383;SDS011;9318;48.644;9.456;2023-08-24T08:42:32;0.22;;;0.22;;
18383;SDS011;9318;48.644;9.456;2023-08-24T08:45:00;0.17;;;0.17;;
18383;SDS011;9318;48.644;9.456;2023-08-24T08:47:30;0.20;;;0.20;;
18383;SDS011;9318;48.644;9.456;2023-08-24T08:49:57;0.20;;;0.20;;
18383;SDS011;9318;48.644;9.456;2023-08-24T08:52:25;0.25;;;0.25;;
18383;SDS011;9318;48.644;9.456;2023-08-24T08:54:53;0.20;;;0.20;;
18383;SDS011;9318;48.644;9.456;2023-08-24T08:57:20;0.20;;;0.20;;
18383;SDS011;9318;48.644;9.456;2023-08-24T08:59:51;0.10;;;0.10;;
18383;SDS011;9318;48.644;9.456;2023-08-24T09:02:19;0.20;;;0.20;;
18383;SDS011;9318;48.644;9.456;2023-08-24T09:04:46;0.20;;;0.20;;
18383;SDS011;9318;48.644;9.456;2023-08-24T09:07:15;0.20;;;0.20;;
18383;SDS011;9318;48.644;9.456;2023-08-24T09:09:42;0.10;;;0.10;;
18383;SDS011;9318;48.644;9.456;2023-08-24T09:12:10;0.13;;;0.13;;
18383;SDS011;9318;48.644;9.456;2023-08-24T09:14:37;0.10;;;0.10;;
18383;SDS011;9318;48.644;9.456;2023-08-24T09:17:04;0.20;;;0.20;;
18383;SDS011;9318;48.644;9.456;2023-08-24T09:19:33;0.20;;;0.20;;
18383;SDS011;9318;48.644;9.456;2023-08-24T09:22:03;0.20;;;0.20;;
18383;SDS011;9318;48.644;9.456;2023-08-24T09:24:30;0.10;;;0.10;;
18383;SDS011;9318;48.644;9.456;2023-08-24T09:26:58;0.10;;;0.10;;
18383;SDS011;9318;48.644;9.456;2023-08-24T09:29:26;0.20;;;0.20;;
18383;SDS011;9318;48.644;9.456;2023-08-24T09:31:53;0.20;;;0.20;;
18383;SDS011;9318;48.644;9.456;2023-08-24T09:34:20;0.20;;;0.20;;
18383;SDS011;9318;48.644;9.456;2023-08-24T09:36:51;0.20;;;0.20;;
18383;SDS011;9318;48.644;9.456;2023-08-24T09:39:18;0.10;;;0.10;;
18383;SDS011;9318;48.644;9.456;2023-08-24T09:41:46;0.10;;;0.10;;
18383;SDS011;9318;48.644;9.456;2023-08-24T09:44:16;0.15;;;0.15;;
18383;SDS011;9318;48.644;9.456;2023-08-24T09:46:44;0.13;;;0.13;;
18383;SDS011;9318;48.644;9.456;2023-08-24T09:49:11;0.20;;;0.20;;
18383;SDS011;9318;48.644;9.456;2023-08-24T09:51:39;0.20;;;0.20;;
18383;SDS011;9318;48.644;9.456;2023-08-24T09:54:07;0.10;;;0.10;;
18383;SDS011;9318;48.644;9.456;2023-08-24T09:56:36;0.13;;;0.13;;
18383;SDS011;9318;48.644;9.456;2023-08-24T09:59:07;0.10;;;0.10;;
18383;SDS011;9318;48.644;9.456;2023-08-24T10:01:38;0.20;;;0.20;;
18383;SDS011;9318;48.644;9.456;2023-08-24T10:04:10;0.20;;;0.20;;
18383;SDS011;9318;48.644;9.456;2023-08-24T10:06:39;0.10;;;0.10;;
18383;SDS011;9318;48.644;9.456;2023-08-24T10:09:07;0.20;;;0.20;;
18383;SDS011;9318;48.644;9.456;2023-08-24T10:11:36;0.20;;;0.20;;
18383;SDS011;9318;48.644;9.456;2023-08-24T10:14:10;0.20;;;0.20;;
18383;SDS011;9318;48.644;9.456;2023-08-24T10:16:42;0.10;;;0.10;;
18383;SDS011;9318;48.644;9.456;2023-08-24T10:19:11;0.10;;;0.10;;
18383;SDS011;9318;48.644;9.456;2023-08-24T10:21:39;0.17;;;0.17;;
18383;SDS011;9318;48.644;9.456;2023-08-24T10:24:08;0.20;;;0.20;;
18383;SDS011;9318;48.644;9.456;2023-08-24T10:26:36;0.20;;;0.20;;
18383;SDS011;9318;48.644;9.456;2023-08-24T10:29:05;0.20;;;0.20;;
18383;SDS011;9318;48.644;9.456;2023-08-24T10:31:32;0.10;;;0.10;;
18383;SDS011;9318;48.644;9.456;2023-08-24T10:34:01;0.20;;;0.20;;
18383;SDS011;9318;48.644;9.456;2023-08-24T10:36:29;0.20;;;0.20;;
18383;SDS011;9318;48.644;9.456;2023-08-24T10:38:57;0.20;;;0.20;;
18383;SDS011;9318;48.644;9.456;2023-08-24T10:41:30;0.20;;;0.20;;
18383;SDS011;9318;48.644;9.456;2023-08-24T10:44:13;0.20;;;0.20;;
18383;SDS011;9318;48.644;9.456;2023-08-24T10:49:37;0.20;;;0.20;;
18383;SDS011;9318;48.644;9.456;2023-08-24T10:52:17;0.20;;;0.20;;
18383;SDS011;9318;48.644;9.456;2023-08-24T10:54:45;0.20;;;0.20;;
18383;SDS011;9318;48.644;9.456;2023-08-24T10:57:17;0.20;;;0.20;;
18383;SDS011;9318;48.644;9.456;2023-08-24T10:59:57;0.20;;;0.20;;
18383;SDS011;9318;48.644;9.456;2023-08-24T11:02:25;0.20;;;0.20;;
18383;SDS011;9318;48.644;9.456;2023-08-24T11:05:05;0.30;;;0.30;;
18383;SDS011;9318;48.644;9.456;2023-08-24T11:07:33;0.20;;;0.20;;
18383;SDS011;9318;48.644;9.456;2023-08-24T11:10:10;0.30;;;0.30;;
18383;SDS011;9318;48.644;9.456;2023-08-24T11:15:32;0.30;;;0.30;;
18383;SDS011;9318;48.644;9.456;2023-08-24T11:18:19;0.28;;;0.28;;
18383;SDS011;9318;48.644;9.456;2023-08-24T11:20:48;0.20;;;0.20;;
18383;SDS011;9318;48.644;9.456;2023-08-24T11:23:17;0.30;;;0.30;;
18383;SDS011;9318;48.644;9.456;2023-08-24T11:25:44;0.30;;;0.30;;
18383;SDS011;9318;48.644;9.456;2023-08-24T11:28:16;0.30;;;0.30;;
18383;SDS011;9318;48.644;9.456;2023-08-24T11:30:43;0.20;;;0.20;;
18383;SDS011;9318;48.644;9.456;2023-08-24T11:33:11;0.28;;;0.28;;
18383;SDS011;9318;48.644;9.456;2023-08-24T11:35:39;0.20;;;0.20;;
18383;SDS011;9318;48.644;9.456;2023-08-24T11:38:06;0.30;;;0.30;;
18383;SDS011;9318;48.644;9.456;2023-08-24T11:40:34;0.30;;;0.30;;
18383;SDS011;9318;48.644;9.456;2023-08-24T11:43:01;0.30;;;0.30;;
18383;SDS011;9318;48.644;9.456;2023-08-24T11:45:31;0.20;;;0.20;;
18383;SDS011;9318;48.644;9.456;2023-08-24T11:47:59;0.30;;;0.30;;
18383;SDS011;9318;48.644;9.456;2023-08-24T11:50:27;0.30;;;0.30;;
18383;SDS011;9318;48.644;9.456;2023-08-24T11:52:54;0.30;;;0.30;;
18383;SDS011;9318;48.644;9.456;2023-08-24T11:55:21;0.10;;;0.10;;
18383;SDS011;9318;48.644;9.456;2023-08-24T11:57:50;0.30;;;0.30;;
18383;SDS011;9318;48.644;9.456;2023-08-24T12:00:17;0.30;;;0.30;;
18383;SDS011;9318;48.644;9.456;2023-08-24T12:02:45;0.30;;;0.30;;
18383;SDS011;9318;48.644;9.456;2023-08-24T12:05:20;0.30;;;0.30;;
18383;SDS011;9318;48.644;9.456;2023-08-24T12:07:48;0.20;;;0.20;;
18383;SDS011;9318;48.644;9.456;2023-08-24T12:10:15;0.30;;;0.30;;
18383;SDS011;9318;48.644;9.456;2023-08-24T12:12:42;0.20;;;0.20;;
18383;SDS011;9318;48.644;9.456;2023-08-24T12:15:15;0.30;;;0.30;;
18383;SDS011;9318;48.644;9.456;2023-08-24T12:17:45;0.22;;;0.22;;
18383;SDS011;9318;48.644;9.456;2023-08-24T12:20:19;0.20;;;0.20;;
18383;SDS011;9318;48.644;9.456;2023-08-24T12:22:51;0.30;;;0.30;;
18383;SDS011;9318;48.644;9.456;2023-08-24T12:25:18;0.30;;;0.30;;
18383;SDS011;9318;48.644;9.456;2023-08-24T12:27:48;0.20;;;0.20;;
18383;SDS011;9318;48.644;9.456;2023-08-24T12:30:16;0.30;;;0.30;;
18383;SDS011;9318;48.644;9.456;2023-08-24T12:32:43;0.20;;;0.20;;
18383;SDS011;9318;48.644;9.456;2023-08-24T12:35:11;0.20;;;0.20;;
18383;SDS011;9318;48.644;9.456;2023-08-24T12:37:38;0.20;;;0.20;;
18383;SDS011;9318;48.644;9.456;2023-08-24T12:40:06;0.30;;;0.30;;
18383;SDS011;9318;48.644;9.456;2023-08-24T12:42:33;0.20;;;0.20;;
18383;SDS011;9318;48.644;9.456;2023-08-24T12:45:00;0.30;;;0.30;;
18383;SDS011;9318;48.644;9.456;2023-08-24T12:47:30;0.25;;;0.25;;
18383;SDS011;9318;48.644;9.456;2023-08-24T12:50:00;0.30;;;0.30;;
18383;SDS011;9318;48.644;9.456;2023-08-24T12:52:27;0.30;;;0.30;;
18383;SDS011;9318;48.644;9.456;2023-08-24T12:54:54;0.30;;;0.30;;
18383;SDS011;9318;48.644;9.456;2023-08-24T12:57:21;0.20;;;0.20;;
18383;SDS011;9318;48.644;9.456;2023-08-24T12:59:49;0.25;;;0.25;;
18383;SDS011;9318;48.644;9.456;2023-08-24T13:02:16;0.30;;;0.30;;
18383;SDS011;9318;48.644;9.456;2023-08-24T13:04:45;0.30;;;0.30;;
18383;SDS011;9318;48.644;9.456;2023-08-24T13:07:11;0.20;;;0.20;;
18383;SDS011;9318;48.644;9.456;2023-08-24T13:09:39;0.25;;;0.25;;
18383;SDS011;9318;48.644;9.456;2023-08-24T13:12:06;0.30;;;0.30;;
18383;SDS011;9318;48.644;9.456;2023-08-24T13:14:33;0.30;;;0.30;;
18383;SDS011;9318;48.644;9.456;2023-08-24T13:17:00;0.22;;;0.22;;
18383;SDS011;9318;48.644;9.456;2023-08-24T13:19:27;0.30;;;0.30;;
18383;SDS011;9318;48.644;9.456;2023-08-24T13:21:55;0.20;;;0.20;;
18383;SDS011;9318;48.644;9.456;2023-08-24T13:24:22;0.20;;;0.20;;
18383;SDS011;9318;48.644;9.456;2023-08-24T13:26:48;0.20;;;0.20;;
18383;SDS011;9318;48.644;9.456;2023-08-24T13:29:15;0.20;;;0.20;;
18383;SDS011;9318;48.644;9.456;2023-08-24T13:31:42;0.22;;;0.22;;
18383;SDS011;9318;48.644;9.456;2023-08-24T13:34:08;0.30;;;0.30;;
18383;SDS011;9318;48.644;9.456;2023-08-24T13:36:35;0.30;;;0.30;;
18383;SDS011;9318;48.644;9.456;2023-08-24T13:39:03;0.30;;;0.30;;
18383;SDS011;9318;48.644;9.456;2023-08-24T13:41:30;0.20;;;0.20;;
18383;SDS011;9318;48.644;9.456;2023-08-24T13:43:57;0.30;;;0.30;;
18383;SDS011;9318;48.644;9.456;2023-08-24T13:46:24;0.20;;;0.20;;
18383;SDS011;9318;48.644;9.456;2023-08-24T13:48:50;0.20;;;0.20;;
18383;SDS011;9318;48.644;9.456;2023-08-24T13:51:17;0.20;;;0.20;;
18383;SDS011;9318;48.644;9.456;2023-08-24T13:53:44;0.20;;;0.20;;
18383;SDS011;9318;48.644;9.456;2023-08-24T13:56:12;0.20;;;0.20;;
18383;SDS011;9318;48.644;9.456;2023-08-24T13:58:39;0.30;;;0.30;;
18383;SDS011;9318;48.644;9.456;2023-08-24T14:01:05;0.30;;;0.30;;
18383;SDS011;9318;48.644;9.456;2023-08-24T14:03:33;0.30;;;0.30;;
18383;SDS011;9318;48.644;9.456;2023-08-24T14:05:59;0.30;;;0.30;;
18383;SDS011;9318;48.644;9.456;2023-08-24T14:08:26;0.20;;;0.20;;
18383;SDS011;9318;48.644;9.456;2023-08-24T14:10:53;0.30;;;0.30;;
18383;SDS011;9318;48.644;9.456;2023-08-24T14:13:21;0.30;;;0.30;;
18383;SDS011;9318;48.644;9.456;2023-08-24T14:15:50;0.20;;;0.20;;
18383;SDS011;9318;48.644;9.456;2023-08-24T14:18:18;0.20;;;0.20;;
18383;SDS011;9318;48.644;9.456;2023-08-24T14:20:45;0.20;;;0.20;;
18383;SDS011;9318;48.644;9.456;2023-08-24T14:23:11;0.20;;;0.20;;
18383;SDS011;9318;48.644;9.456;2023-08-24T14:25:38;0.20;;;0.20;;
18383;SDS011;9318;48.644;9.456;2023-08-24T14:28:05;0.20;;;0.20;;
18383;SDS011;9318;48.644;9.456;2023-08-24T14:30:33;0.20;;;0.20;;
18383;SDS011;9318;48.644;9.456;2023-08-24T14:33:00;0.20;;;0.20;;
18383;SDS011;9318;48.644;9.456;2023-08-24T14:35:26;0.30;;;0.30;;
18383;SDS011;9318;48.644;9.456;2023-08-24T14:37:53;0.20;;;0.20;;
18383;SDS011;9318;48.644;9.456;2023-08-24T14:40:20;0.30;;;0.30;;
18383;SDS011;9318;48.644;9.456;2023-08-24T14:42:47;0.30;;;0.30;;
18383;SDS011;9318;48.644;9.456;2023-08-24T14:45:14;0.30;;;0.30;;
18383;SDS011;9318;48.644;9.456;2023-08-24T14:47:44;0.35;;;0.35;;
18383;SDS011;9318;48.644;9.456;2023-08-24T14:50:11;0.25;;;0.25;;
18383;SDS011;9318;48.644;9.456;2023-08-24T14:52:39;0.30;;;0.30;;
18383;SDS011;9318;48.644;9.456;2023-08-24T14:55:07;0.20;;;0.20;;
18383;SDS011;9318;48.644;9.456;2023-08-24T14:57:34;0.30;;;0.30;;
18383;SDS011;9318;48.644;9.456;2023-08-24T15:00:01;0.30;;;0.30;;
18383;SDS011;9318;48.644;9.456;2023-08-24T15:02:30;0.35;;;0.35;;
18383;SDS011;9318;48.644;9.456;2023-08-24T15:04:58;0.30;;;0.30;;
18383;SDS011;9318;48.644;9.456;2023-08-24T15:07:25;0.30;;;0.30;;
18383;SDS011;9318;48.644;9.456;2023-08-24T15:09:52;0.20;;;0.20;;